createdAt,value
2018-04-08T00:02:08.750Z,47.68
2018-04-08T00:04:36.306Z,47.79
2018-04-08T00:07:03.784Z,47.78
2018-04-08T00:09:31.338Z,48.25
2018-04-08T00:11:58.832Z,48.25
2018-04-08T00:14:26.274Z,48.21
2018-04-08T00:16:53.782Z,48.38
2018-04-08T00:19:21.276Z,48.47
2018-04-08T00:21:49.067Z,48.84
2018-04-08T00:24:17.758Z,48.90
2018-04-08T00:26:45.310Z,48.87
2018-04-08T00:29:12.748Z,48.82
2018-04-08T00:31:40.347Z,49.02
2018-04-08T00:34:07.915Z,49.11
2018-04-08T00:36:35.547Z,49.13
2018-04-08T00:39:03.726Z,49.12
2018-04-08T00:41:31.186Z,49.25
2018-04-08T00:43:58.731Z,49.60
2018-04-08T00:46:26.352Z,49.60
2018-04-08T00:48:53.862Z,49.47
2018-04-08T00:51:21.392Z,49.35
2018-04-08T00:56:43.968Z,49.97
2018-04-08T00:59:11.558Z,49.98
2018-04-08T01:01:39.070Z,49.59
2018-04-08T01:04:06.565Z,49.73
2018-04-08T01:06:34.011Z,49.88
2018-04-08T01:09:01.470Z,49.97
2018-04-08T01:11:28.943Z,50.31
2018-04-08T01:13:56.377Z,50.08
2018-04-08T01:16:23.862Z,50.18
2018-04-08T01:18:51.833Z,50.26
2018-04-08T01:21:19.301Z,50.21
2018-04-08T01:23:46.843Z,50.74
2018-04-08T01:26:14.291Z,50.96
2018-04-08T01:28:41.756Z,50.79
2018-04-08T01:31:09.259Z,50.75
2018-04-08T01:33:36.862Z,50.57
2018-04-08T01:36:04.321Z,50.93
2018-04-08T01:38:31.797Z,51.23
2018-04-08T01:40:59.275Z,51.19
2018-04-08T01:43:26.740Z,51.17
2018-04-08T01:45:54.252Z,51.30
2018-04-08T01:48:21.734Z,51.14
2018-04-08T01:50:49.185Z,51.45
2018-04-08T01:53:16.692Z,52.01
2018-04-08T01:55:44.262Z,52.22
2018-04-08T01:58:11.783Z,52.34
2018-04-08T02:00:39.228Z,52.27
2018-04-08T02:03:06.721Z,52.74
2018-04-08T02:05:35.726Z,52.63
2018-04-08T02:08:03.196Z,52.68
2018-04-08T02:10:30.700Z,52.92
2018-04-08T02:12:58.227Z,52.77
2018-04-08T02:15:25.692Z,53.11
2018-04-08T02:17:53.128Z,52.81
2018-04-08T02:20:20.606Z,53.19
2018-04-08T02:22:48.055Z,53.15
2018-04-08T02:25:15.528Z,53.19
2018-04-08T02:27:42.982Z,52.71
2018-04-08T02:30:10.456Z,52.88
2018-04-08T02:32:37.965Z,52.72
2018-04-08T02:35:05.461Z,52.61
2018-04-08T02:37:32.960Z,52.78
2018-04-08T02:40:00.368Z,52.69
2018-04-08T02:42:27.885Z,52.95
2018-04-08T02:44:55.356Z,53.03
2018-04-08T02:47:22.823Z,53.36
2018-04-08T02:49:50.285Z,53.34
2018-04-08T02:52:17.746Z,53.25
2018-04-08T02:54:45.243Z,53.17
2018-04-08T02:57:12.733Z,53.26
2018-04-08T02:59:40.168Z,53.24
2018-04-08T03:02:07.640Z,53.38
2018-04-08T03:04:35.126Z,53.43
2018-04-08T03:07:02.602Z,53.58
2018-04-08T03:09:30.066Z,53.47
2018-04-08T03:11:57.515Z,53.66
2018-04-08T03:14:25.055Z,53.89
2018-04-08T03:16:52.519Z,54.33
2018-04-08T03:19:19.998Z,54.13
2018-04-08T03:21:47.580Z,54.54
2018-04-08T03:24:15.041Z,54.81
2018-04-08T03:26:42.937Z,54.58
2018-04-08T03:29:10.410Z,54.59
2018-04-08T03:31:37.851Z,54.81
2018-04-08T03:34:05.437Z,54.59
2018-04-08T03:36:33.003Z,55.39
2018-04-08T03:39:00.571Z,55.71
2018-04-08T03:41:28.914Z,55.63
2018-04-08T03:43:56.394Z,55.48
2018-04-08T03:46:23.860Z,55.23
2018-04-08T03:48:51.309Z,55.05
2018-04-08T03:51:19.042Z,54.95
2018-04-08T03:53:46.518Z,55.01
2018-04-08T03:56:14.031Z,54.82
2018-04-08T03:58:43.465Z,54.61
2018-04-08T04:01:10.935Z,54.76
2018-04-08T04:03:38.475Z,54.92
2018-04-08T04:06:05.961Z,55.33
2018-04-08T04:08:33.442Z,55.30
2018-04-08T04:11:00.935Z,55.21
2018-04-08T04:13:28.394Z,55.28
2018-04-08T04:15:55.846Z,55.48
2018-04-08T04:18:35.099Z,55.93
2018-04-08T04:21:14.320Z,56.02
2018-04-08T04:23:53.731Z,55.64
2018-04-08T04:26:31.523Z,55.57
2018-04-08T04:28:58.964Z,55.50
2018-04-08T04:31:26.426Z,56.15
2018-04-08T04:33:54.487Z,56.42
2018-04-08T04:36:21.955Z,56.52
2018-04-08T04:38:49.421Z,56.18
2018-04-08T04:41:16.947Z,56.41
2018-04-08T04:43:44.425Z,56.35
2018-04-08T04:46:11.913Z,56.21
2018-04-08T04:48:39.370Z,56.44
2018-04-08T04:51:06.798Z,56.64
2018-04-08T04:53:34.264Z,56.53
2018-04-08T04:56:01.697Z,56.67
2018-04-08T04:58:29.172Z,56.50
2018-04-08T05:00:56.613Z,56.40
2018-04-08T05:03:24.054Z,56.39
2018-04-08T05:05:51.510Z,56.47
2018-04-08T05:08:18.954Z,56.92
2018-04-08T05:10:46.427Z,56.74
2018-04-08T05:13:14.877Z,56.69
2018-04-08T05:15:42.343Z,56.53
2018-04-08T05:18:09.812Z,56.42
2018-04-08T05:20:37.321Z,56.85
2018-04-08T05:23:04.787Z,56.74
2018-04-08T05:25:32.201Z,56.56
2018-04-08T05:27:59.669Z,56.04
2018-04-08T05:30:27.103Z,53.85
2018-04-08T05:32:54.571Z,51.90
2018-04-08T05:35:22.016Z,50.48
2018-04-08T05:37:49.473Z,48.49
2018-04-08T05:40:16.962Z,46.95
2018-04-08T05:42:44.491Z,45.39
2018-04-08T05:45:11.940Z,43.83
2018-04-08T05:47:39.430Z,42.39
2018-04-08T05:50:06.867Z,41.12
2018-04-08T05:52:34.320Z,39.96
2018-04-08T05:55:01.781Z,39.13
2018-04-08T05:57:29.219Z,38.89
2018-04-08T05:59:56.788Z,39.31
2018-04-08T06:02:24.301Z,41.62
2018-04-08T06:04:51.874Z,42.54
2018-04-08T06:07:19.331Z,42.89
2018-04-08T06:09:46.797Z,42.93
2018-04-08T06:12:14.620Z,42.51
2018-04-08T06:14:42.199Z,41.80
2018-04-08T06:17:09.621Z,40.74
2018-04-08T06:19:37.117Z,36.72
2018-04-08T06:22:04.566Z,33.87
2018-04-08T06:24:32.039Z,31.84
2018-04-08T06:26:59.505Z,30.17
2018-04-08T06:29:26.980Z,28.78
2018-04-08T06:31:54.473Z,27.69
2018-04-08T06:34:22.033Z,26.97
2018-04-08T06:36:50.670Z,26.02
2018-04-08T06:39:18.120Z,25.30
2018-04-08T06:41:45.585Z,26.11
2018-04-08T06:44:13.197Z,25.50
2018-04-08T06:46:40.722Z,24.81
2018-04-08T06:49:08.188Z,23.95
2018-04-08T06:51:35.650Z,23.87
2018-04-08T06:54:03.286Z,24.17
2018-04-08T06:56:30.761Z,23.57
2018-04-08T06:58:58.206Z,23.51
2018-04-08T07:01:25.658Z,23.58
2018-04-08T07:03:53.090Z,28.42
2018-04-08T07:06:20.569Z,33.16
2018-04-08T07:08:48.007Z,35.73
2018-04-08T07:11:15.438Z,37.23
2018-04-08T07:13:43.386Z,38.67
2018-04-08T07:16:10.828Z,39.33
2018-04-08T07:18:38.322Z,39.89
2018-04-08T07:21:05.774Z,40.84
2018-04-08T07:23:33.332Z,41.54
2018-04-08T07:26:00.898Z,41.14
2018-04-08T07:28:28.351Z,41.74
2018-04-08T07:30:55.808Z,41.09
2018-04-08T07:33:23.308Z,41.84
2018-04-08T07:35:50.751Z,41.42
2018-04-08T07:38:18.228Z,41.34
2018-04-08T07:40:46.595Z,40.73
2018-04-08T07:43:14.217Z,41.27
2018-04-08T07:45:41.747Z,41.17
2018-04-08T07:48:09.202Z,41.02
2018-04-08T07:50:36.687Z,40.58
2018-04-08T07:53:04.165Z,40.61
2018-04-08T07:55:31.679Z,40.69
2018-04-08T07:57:59.100Z,40.08
2018-04-08T08:00:26.570Z,39.77
2018-04-08T08:02:54.067Z,39.43
2018-04-08T08:05:21.595Z,39.97
2018-04-08T08:07:49.025Z,39.12
2018-04-08T08:10:16.493Z,38.83
2018-04-08T08:12:44.000Z,38.34
2018-04-08T08:15:11.439Z,38.65
2018-04-08T08:17:38.928Z,38.61
2018-04-08T08:20:06.362Z,37.75
2018-04-08T08:22:33.884Z,37.28
2018-04-08T08:25:01.375Z,37.34
2018-04-08T08:27:28.852Z,36.94
2018-04-08T08:29:56.293Z,37.22
2018-04-08T08:32:23.780Z,37.20
2018-04-08T08:34:51.289Z,36.35
2018-04-08T08:37:18.770Z,35.24
2018-04-08T08:39:46.234Z,34.52
2018-04-08T08:42:13.726Z,33.30
2018-04-08T08:44:42.305Z,32.74
2018-04-08T08:47:09.952Z,32.88
2018-04-08T08:49:37.409Z,33.38
2018-04-08T08:52:04.847Z,31.82
2018-04-08T08:54:32.363Z,31.22
2018-04-08T08:56:59.797Z,30.59
2018-04-08T08:59:27.354Z,30.49
2018-04-08T09:01:54.808Z,30.40
2018-04-08T09:04:22.274Z,30.47
2018-04-08T09:06:49.763Z,30.57
2018-04-08T09:09:17.202Z,30.44
2018-04-08T09:11:44.660Z,29.68
2018-04-08T09:14:12.109Z,29.06
2018-04-08T09:16:39.566Z,29.96
2018-04-08T09:19:09.179Z,29.90
2018-04-08T09:24:46.976Z,28.55
2018-04-08T09:27:14.434Z,27.97
2018-04-08T09:29:41.923Z,28.15
2018-04-08T09:32:09.335Z,27.74
2018-04-08T09:34:36.791Z,27.73
2018-04-08T09:37:04.228Z,28.18
2018-04-08T09:39:31.693Z,27.30
2018-04-08T09:41:59.150Z,28.00
2018-04-08T09:44:26.612Z,26.83
2018-04-08T09:46:54.080Z,25.94
2018-04-08T09:49:21.530Z,26.65
2018-04-08T09:51:48.995Z,25.80
2018-04-08T09:54:16.436Z,26.04
2018-04-08T09:56:43.928Z,25.20
2018-04-08T09:59:11.376Z,26.14
2018-04-08T10:01:43.540Z,25.26
2018-04-08T10:04:10.994Z,25.81
2018-04-08T10:06:38.469Z,24.83
2018-04-08T10:09:06.695Z,23.95
2018-04-08T10:11:34.229Z,24.93
2018-04-08T10:14:01.665Z,23.11
2018-04-08T10:16:29.160Z,24.15
2018-04-08T10:18:56.656Z,23.93
2018-04-08T10:21:24.122Z,23.68
2018-04-08T10:23:52.167Z,22.98
2018-04-08T10:26:19.626Z,23.83
2018-04-08T10:28:47.232Z,23.72
2018-04-08T10:31:14.777Z,24.30
2018-04-08T10:33:42.233Z,22.89
2018-04-08T10:36:09.717Z,23.25
2018-04-08T10:38:37.174Z,22.71
2018-04-08T10:41:04.707Z,21.70
2018-04-08T10:43:32.177Z,22.40
2018-04-08T10:45:59.613Z,22.01
2018-04-08T10:48:27.101Z,23.75
2018-04-08T10:50:55.236Z,22.71
2018-04-08T10:53:22.806Z,22.35
2018-04-08T10:55:50.319Z,22.26
2018-04-08T10:58:17.767Z,22.38
2018-04-08T11:00:45.269Z,21.00
2018-04-08T11:03:12.722Z,21.49
2018-04-08T11:05:40.164Z,22.31
2018-04-08T11:08:07.648Z,19.95
2018-04-08T11:10:35.486Z,20.12
2018-04-08T11:13:02.964Z,20.49
2018-04-08T11:15:30.406Z,20.54
2018-04-08T11:17:57.882Z,19.03
2018-04-08T11:20:25.339Z,20.62
2018-04-08T11:22:52.814Z,19.85
2018-04-08T11:25:20.261Z,20.49
2018-04-08T11:27:47.938Z,20.18
2018-04-08T11:30:15.455Z,21.00
2018-04-08T11:32:43.033Z,20.48
2018-04-08T11:35:10.507Z,20.29
2018-04-08T11:37:37.960Z,19.04
2018-04-08T11:40:05.420Z,18.78
2018-04-08T11:42:32.894Z,20.98
2018-04-08T11:45:00.355Z,21.29
2018-04-08T11:47:27.849Z,21.51
2018-04-08T11:49:55.417Z,21.73
2018-04-08T11:52:22.923Z,21.89
2018-04-08T11:54:50.427Z,21.36
2018-04-08T11:57:17.926Z,21.41
2018-04-08T11:59:45.421Z,21.51
2018-04-08T12:02:12.854Z,21.95
2018-04-08T12:04:40.333Z,21.41
2018-04-08T12:07:07.798Z,21.45
2018-04-08T12:09:35.298Z,20.55
2018-04-08T12:12:02.784Z,21.27
2018-04-08T12:14:30.217Z,20.92
2018-04-08T12:16:57.658Z,21.02
2018-04-08T12:19:25.183Z,21.00
2018-04-08T12:21:53.588Z,19.83
2018-04-08T12:24:21.058Z,19.77
2018-04-08T12:26:49.435Z,19.73
2018-04-08T12:29:16.933Z,19.00
2018-04-08T12:31:44.393Z,15.53
2018-04-08T12:34:11.854Z,16.33
2018-04-08T12:36:39.405Z,16.10
2018-04-08T12:39:06.898Z,15.39
2018-04-08T12:41:34.422Z,14.78
2018-04-08T12:44:01.896Z,14.30
2018-04-08T12:46:29.492Z,13.73
2018-04-08T12:48:56.943Z,13.33
2018-04-08T12:51:25.268Z,12.44
2018-04-08T12:53:53.438Z,12.67
2018-04-08T12:56:20.867Z,12.47
2018-04-08T12:58:48.311Z,12.36
2018-04-08T13:01:15.788Z,12.86
2018-04-08T13:03:43.222Z,13.13
2018-04-08T13:06:10.733Z,12.56
2018-04-08T13:08:38.195Z,12.39
2018-04-08T13:11:05.665Z,12.64
2018-04-08T13:13:33.135Z,12.13
2018-04-08T13:16:00.622Z,11.66
2018-04-08T13:18:28.115Z,12.12
2018-04-08T13:20:55.580Z,12.16
2018-04-08T13:23:23.119Z,12.04
2018-04-08T13:25:50.581Z,12.92
2018-04-08T13:28:18.057Z,13.46
2018-04-08T13:30:45.509Z,12.15
2018-04-08T13:33:12.950Z,12.75
2018-04-08T13:35:40.430Z,13.24
2018-04-08T13:38:08.447Z,13.40
2018-04-08T13:40:35.891Z,13.78
2018-04-08T13:43:03.384Z,14.30
2018-04-08T13:45:31.152Z,15.36
2018-04-08T13:47:58.629Z,14.66
2018-04-08T13:50:26.468Z,14.88
2018-04-08T13:52:53.945Z,15.92
2018-04-08T13:55:21.390Z,15.11
2018-04-08T13:57:48.832Z,15.97
2018-04-08T14:00:16.304Z,16.00
2018-04-08T14:02:43.769Z,16.21
2018-04-08T14:05:11.233Z,15.53
2018-04-08T14:07:38.730Z,14.74
2018-04-08T14:10:06.190Z,15.69
2018-04-08T14:12:33.614Z,15.73
2018-04-08T14:15:01.073Z,13.99
2018-04-08T14:17:28.536Z,12.98
2018-04-08T14:19:55.973Z,13.38
2018-04-08T14:22:23.713Z,13.17
2018-04-08T14:24:51.287Z,13.38
2018-04-08T14:27:18.717Z,12.66
2018-04-08T14:29:46.144Z,13.06
2018-04-08T14:32:13.664Z,12.86
2018-04-08T14:34:41.113Z,13.34
2018-04-08T14:37:08.585Z,14.30
2018-04-08T14:39:36.009Z,14.39
2018-04-08T14:42:03.521Z,14.42
2018-04-08T14:44:31.042Z,14.68
2018-04-08T14:46:58.735Z,15.21
2018-04-08T14:49:26.185Z,15.22
2018-04-08T14:51:53.628Z,14.23
2018-04-08T14:54:21.101Z,15.25
2018-04-08T14:56:48.732Z,15.54
2018-04-08T14:59:16.202Z,15.94
2018-04-08T15:01:46.665Z,16.12
2018-04-08T15:04:11.250Z,16.86
2018-04-08T15:06:38.700Z,17.46
2018-04-08T15:09:06.201Z,16.91
2018-04-08T15:11:34.257Z,17.12
2018-04-08T15:14:01.711Z,16.48
2018-04-08T15:16:29.273Z,16.97
2018-04-08T15:18:56.849Z,16.89
2018-04-08T15:21:24.453Z,17.67
2018-04-08T15:23:51.961Z,18.07
2018-04-08T15:26:19.411Z,18.25
2018-04-08T15:28:46.882Z,18.92
2018-04-08T15:31:15.748Z,19.24
2018-04-08T15:33:43.234Z,19.76
2018-04-08T15:36:10.759Z,19.60
2018-04-08T15:38:38.408Z,20.28
2018-04-08T15:41:05.994Z,20.51
2018-04-08T15:43:33.458Z,19.27
2018-04-08T15:46:00.935Z,20.85
2018-04-08T15:48:28.453Z,20.88
2018-04-08T15:50:55.895Z,20.65
2018-04-08T15:53:23.365Z,21.13
2018-04-08T15:55:50.815Z,20.85
2018-04-08T15:58:18.286Z,21.28
2018-04-08T16:00:45.767Z,21.38
2018-04-08T16:03:13.267Z,21.00
2018-04-08T16:05:40.702Z,21.21
2018-04-08T16:08:08.158Z,21.74
2018-04-08T16:11:11.332Z,22.30
2018-04-08T16:13:38.875Z,23.02
2018-04-08T16:16:06.352Z,22.49
2018-04-08T16:18:33.867Z,22.94
2018-04-08T16:21:01.292Z,22.92
2018-04-08T16:23:28.823Z,22.64
2018-04-08T16:25:56.272Z,23.18
2018-04-08T16:28:23.712Z,23.26
2018-04-08T16:30:51.164Z,23.12
2018-04-08T16:33:18.628Z,23.78
2018-04-08T16:35:46.156Z,24.00
2018-04-08T16:38:13.762Z,24.53
2018-04-08T16:40:41.351Z,24.75
2018-04-08T16:43:08.935Z,25.14
2018-04-08T16:45:36.554Z,25.39
2018-04-08T16:48:04.024Z,25.19
2018-04-08T16:50:31.496Z,25.21
2018-04-08T16:52:59.130Z,25.00
2018-04-08T16:55:26.651Z,24.82
2018-04-08T16:57:54.097Z,25.57
2018-04-08T17:00:21.587Z,25.83
2018-04-08T17:02:49.040Z,26.30
2018-04-08T17:05:16.506Z,26.71
2018-04-08T17:07:44.114Z,26.79
2018-04-08T17:10:11.581Z,26.41
2018-04-08T17:12:39.120Z,26.27
2018-04-08T17:15:06.579Z,26.65
2018-04-08T17:17:34.045Z,26.69
2018-04-08T17:20:01.522Z,27.09
2018-04-08T17:22:28.934Z,27.73
2018-04-08T17:24:56.415Z,27.73
2018-04-08T17:27:23.870Z,27.61
2018-04-08T17:29:51.356Z,27.43
2018-04-08T17:32:18.834Z,27.84
2018-04-08T17:34:47.224Z,28.16
2018-04-08T17:37:14.752Z,27.81
2018-04-08T17:39:42.232Z,27.64
2018-04-08T17:42:09.777Z,27.25
2018-04-08T17:44:37.305Z,27.56
2018-04-08T17:47:04.902Z,27.74
2018-04-08T17:49:32.347Z,27.47
2018-04-08T17:51:59.815Z,27.62
2018-04-08T17:54:27.652Z,27.86
2018-04-08T17:56:55.101Z,27.78
2018-04-08T17:59:22.574Z,28.17
2018-04-08T18:01:50.071Z,28.41
2018-04-08T18:04:17.547Z,28.43
2018-04-08T18:06:45.002Z,28.83
2018-04-08T18:09:12.431Z,28.75
2018-04-08T18:11:39.899Z,29.18
2018-04-08T18:14:07.401Z,29.09
2018-04-08T18:16:34.903Z,29.00
2018-04-08T18:19:02.340Z,29.08
2018-04-08T18:21:29.777Z,29.27
2018-04-08T18:23:57.263Z,29.43
2018-04-08T18:26:24.775Z,29.56
2018-04-08T18:28:52.207Z,29.59
2018-04-08T18:31:19.851Z,29.71
2018-04-08T18:33:47.369Z,29.65
2018-04-08T18:36:14.832Z,30.04
2018-04-08T18:38:42.348Z,29.98
2018-04-08T18:41:09.795Z,30.30
2018-04-08T18:43:37.304Z,30.46
2018-04-08T18:46:04.772Z,30.49
2018-04-08T18:48:32.227Z,30.49
2018-04-08T18:50:59.654Z,31.16
2018-04-08T18:53:27.612Z,31.02
2018-04-08T18:55:55.106Z,31.46
2018-04-08T18:58:22.609Z,31.97
2018-04-08T19:00:50.063Z,32.31
2018-04-08T19:03:17.567Z,32.54
2018-04-08T19:05:49.057Z,32.44
2018-04-08T19:08:16.541Z,32.66
2018-04-08T19:10:43.984Z,32.77
2018-04-08T19:13:11.423Z,32.79
2018-04-08T19:15:38.954Z,33.10
2018-04-08T19:18:06.474Z,33.28
2018-04-08T19:20:34.079Z,33.26
2018-04-08T19:23:01.546Z,33.44
2018-04-08T19:25:29.191Z,33.89
2018-04-08T19:27:56.760Z,33.95
2018-04-08T19:30:24.321Z,34.28
2018-04-08T19:32:51.757Z,34.25
2018-04-08T19:35:19.258Z,34.35
2018-04-08T19:37:46.710Z,34.35
2018-04-08T19:40:14.182Z,34.30
2018-04-08T19:42:42.233Z,34.34
2018-04-08T19:45:09.674Z,34.36
2018-04-08T19:47:37.139Z,34.73
2018-04-08T19:50:04.650Z,34.63
2018-04-08T19:52:32.154Z,35.00
2018-04-08T19:54:59.599Z,35.07
2018-04-08T19:57:27.106Z,35.36
2018-04-08T19:59:54.580Z,35.48
2018-04-08T20:02:22.051Z,35.40
2018-04-08T20:04:49.545Z,35.09
2018-04-08T20:07:17.005Z,35.49
2018-04-08T20:09:44.855Z,35.77
2018-04-08T20:12:12.396Z,35.83
2018-04-08T20:14:39.984Z,36.07
2018-04-08T20:17:07.606Z,36.29
2018-04-08T20:19:35.218Z,36.50
2018-04-08T20:22:02.725Z,36.65
2018-04-08T20:24:30.206Z,37.00
2018-04-08T20:26:57.666Z,37.10
2018-04-08T20:29:25.213Z,37.04
2018-04-08T20:31:52.597Z,36.99
2018-04-08T20:34:20.062Z,37.05
2018-04-08T20:36:47.515Z,37.38
2018-04-08T20:39:15.047Z,37.33
2018-04-08T20:41:42.514Z,37.73
2018-04-08T20:44:11.023Z,37.71
2018-04-08T20:46:38.473Z,37.82
2018-04-08T20:49:05.974Z,38.09
2018-04-08T20:51:33.439Z,38.48
2018-04-08T20:54:00.872Z,38.83
2018-04-08T20:56:28.366Z,38.88
2018-04-08T20:58:56.680Z,39.02
2018-04-08T21:01:24.315Z,39.07
2018-04-08T21:03:51.837Z,39.45
2018-04-08T21:06:19.275Z,39.79
2018-04-08T21:08:46.738Z,40.10
2018-04-08T21:11:14.186Z,40.06
2018-04-08T21:16:15.479Z,40.13
2018-04-08T21:18:43.020Z,40.38
2018-04-08T21:21:10.474Z,40.57
2018-04-08T21:23:37.946Z,40.84
2018-04-08T21:26:05.381Z,40.94
2018-04-08T21:28:32.837Z,41.09
2018-04-08T21:31:00.334Z,41.13
2018-04-08T21:33:27.806Z,41.24
2018-04-08T21:35:55.264Z,41.15
2018-04-08T21:38:22.723Z,41.15
2018-04-08T21:40:50.193Z,41.09
2018-04-08T21:43:17.620Z,41.50
2018-04-08T21:45:45.089Z,41.68
2018-04-08T21:48:12.523Z,41.70
2018-04-08T21:50:40.072Z,41.97
2018-04-08T21:53:07.511Z,42.13
2018-04-08T21:55:34.947Z,42.39
2018-04-08T21:58:02.400Z,42.35
2018-04-08T22:00:29.831Z,42.34
2018-04-08T22:02:57.282Z,42.48
2018-04-08T22:05:24.741Z,42.55
2018-04-08T22:07:52.200Z,42.76
2018-04-08T22:10:19.620Z,43.14
2018-04-08T22:12:47.089Z,43.13
2018-04-08T22:15:14.528Z,43.16
2018-04-08T22:17:42.042Z,43.23
2018-04-08T22:20:09.506Z,43.47
2018-04-08T22:22:36.967Z,43.63
2018-04-08T22:25:04.400Z,43.90
2018-04-08T22:27:32.694Z,44.04
2018-04-08T22:30:00.139Z,43.89
2018-04-08T22:32:27.601Z,43.70
2018-04-08T22:34:55.049Z,43.70
2018-04-08T22:37:22.471Z,43.77
2018-04-08T22:39:49.947Z,43.97
2018-04-08T22:42:17.385Z,44.09
2018-04-08T22:44:44.815Z,44.41
2018-04-08T22:47:12.375Z,44.81
2018-04-08T22:49:39.830Z,44.68
2018-04-08T22:52:07.294Z,44.75
2018-04-08T22:54:34.848Z,44.88
2018-04-08T22:57:02.275Z,44.93
2018-04-08T22:59:29.735Z,45.86
2018-04-08T23:01:57.203Z,45.75
2018-04-08T23:04:24.632Z,45.51
2018-04-08T23:06:52.138Z,45.49
2018-04-08T23:09:19.778Z,45.58
2018-04-08T23:11:47.393Z,46.06
2018-04-08T23:14:14.893Z,46.04
2018-04-08T23:16:43.174Z,46.19
2018-04-08T23:19:10.598Z,46.10
2018-04-08T23:21:38.059Z,46.02
2018-04-08T23:24:05.550Z,46.73
2018-04-08T23:26:33.015Z,47.41
2018-04-08T23:29:00.489Z,47.14
2018-04-08T23:31:27.918Z,46.92
2018-04-08T23:33:55.382Z,47.10
2018-04-08T23:36:22.820Z,47.43
2018-04-08T23:38:50.300Z,47.29
2018-04-08T23:41:17.757Z,47.42
2018-04-08T23:43:45.226Z,47.67
2018-04-08T23:46:12.656Z,47.67
2018-04-08T23:48:40.141Z,47.49
2018-04-08T23:51:07.583Z,47.93
2018-04-08T23:53:35.039Z,48.07
2018-04-08T23:56:02.504Z,48.07
2018-04-08T23:58:29.955Z,48.88
